Terminal Aerodrome Forecast
Issued by NWS

Home | Current Version | Previous Version | Text Only | Print | Product List | Glossary On
Versions: 1 2 3 4 5 6 7 8 9 10 11 12 13 14
000
FTAK31 PANC 230535
TAFAVD
TAF
PAVD 230535Z 2306/2406 VRB03KT P6SM SCT050 BKN100
     FM231200 VRB03KT P6SM VCSH FEW020 OVC040
     FM231800 VRB03KT P6SM -RA SCT015 OVC030
      AMD LTD TO CLD VIS AND WIND=

USA.gov is the U.S. government's official web portal to all federal, state and local government web resources and services.